createdAt,value
2019-05-18T00:02:41.577Z,0.00
2019-05-18T00:03:41.495Z,0.00
2019-05-18T00:04:41.417Z,0.00
2019-05-18T00:05:41.341Z,0.00
2019-05-18T00:06:41.264Z,0.00
2019-05-18T00:07:41.388Z,0.00
2019-05-18T00:08:41.110Z,0.00
2019-05-18T00:09:41.035Z,0.00
2019-05-18T00:10:40.957Z,0.00
2019-05-18T00:11:40.879Z,0.00
2019-05-18T00:12:40.811Z,0.00
2019-05-18T00:13:40.726Z,0.00
2019-05-18T00:16:28.060Z,0.00
2019-05-18T00:17:27.981Z,0.00
2019-05-18T00:18:27.904Z,0.00
2019-05-18T00:19:27.830Z,0.00
2019-05-18T00:21:27.674Z,0.00
2019-05-18T00:24:27.442Z,0.00
2019-05-18T00:25:27.370Z,0.00
2019-05-18T00:26:27.289Z,0.00
2019-05-18T00:27:27.212Z,0.00
2019-05-18T00:28:27.134Z,0.00
2019-05-18T00:29:27.057Z,0.00
2019-05-18T03:27:36.766Z,20.00
2019-05-18T03:28:36.669Z,28.00
2019-05-18T03:29:36.595Z,28.00
2019-05-18T03:30:36.514Z,28.00
2019-05-18T03:31:36.513Z,32.00
2019-05-18T03:32:36.463Z,40.00
2019-05-18T03:33:36.286Z,40.00
2019-05-18T03:34:36.210Z,44.00
2019-05-18T03:35:36.149Z,48.00
2019-05-18T03:36:36.058Z,52.00
2019-05-18T03:37:35.982Z,56.00
2019-05-18T03:38:35.906Z,60.00
2019-05-18T03:39:35.832Z,64.00
2019-05-18T03:40:35.756Z,72.00
2019-05-18T03:41:35.676Z,76.00
2019-05-18T03:42:35.604Z,80.00
2019-05-18T03:43:35.521Z,88.00
2019-05-18T03:44:35.447Z,96.00
2019-05-18T03:45:35.369Z,100.00
2019-05-18T03:46:35.293Z,108.00
2019-05-18T03:47:35.217Z,116.00
2019-05-18T03:48:35.240Z,124.00
2019-05-18T03:49:35.208Z,132.00
2019-05-18T03:50:34.987Z,136.00
2019-05-18T03:51:34.921Z,140.00
2019-05-18T03:52:35.168Z,148.00
2019-05-18T03:53:34.759Z,152.00
2019-05-18T03:54:34.682Z,160.00
2019-05-18T03:55:34.606Z,164.00
2019-05-18T03:56:34.529Z,176.00
2019-05-18T03:57:34.453Z,184.00
2019-05-18T03:58:34.388Z,192.00
2019-05-18T03:59:34.316Z,200.00
2019-05-18T04:00:34.228Z,208.00
2019-05-18T04:01:34.148Z,220.00
2019-05-18T04:02:34.071Z,232.00
2019-05-18T04:03:33.994Z,244.00
2019-05-18T04:04:33.920Z,256.00
2019-05-18T04:05:33.844Z,268.00
2019-05-18T04:06:33.765Z,284.00
2019-05-18T04:07:33.690Z,296.00
2019-05-18T04:08:33.714Z,316.00
2019-05-18T04:09:33.539Z,332.00
2019-05-18T04:10:33.460Z,352.00
2019-05-18T04:11:33.397Z,376.00
2019-05-18T04:12:33.310Z,404.00
2019-05-18T04:13:33.234Z,424.00
2019-05-18T04:14:33.156Z,432.00
2019-05-18T04:15:33.087Z,436.00
2019-05-18T04:16:33.003Z,436.00
2019-05-18T04:18:32.850Z,440.00
2019-05-18T04:19:45.499Z,440.00
2019-05-18T04:20:32.699Z,444.00
2019-05-18T04:21:32.622Z,440.00
2019-05-18T04:22:32.548Z,436.00
2019-05-18T04:23:32.469Z,432.00
2019-05-18T04:24:32.396Z,428.00
2019-05-18T04:25:32.519Z,424.00
2019-05-18T04:26:32.242Z,416.00
2019-05-18T04:27:32.170Z,412.00
2019-05-18T04:28:32.091Z,424.00
2019-05-18T04:29:32.013Z,416.00
2019-05-18T04:30:31.937Z,416.00
2019-05-18T04:31:32.500Z,420.00
2019-05-18T04:32:31.786Z,424.00
2019-05-18T04:33:31.708Z,436.00
2019-05-18T04:35:31.655Z,460.00
2019-05-18T04:36:31.494Z,484.00
2019-05-18T04:37:31.406Z,508.00
2019-05-18T04:38:31.338Z,532.00
2019-05-18T04:39:31.257Z,552.00
2019-05-18T04:48:31.006Z,744.00
2019-05-18T04:49:31.206Z,776.00
2019-05-18T05:14:32.368Z,2004.00
2019-05-18T05:15:32.294Z,2088.00
2019-05-18T05:16:32.218Z,2168.00
2019-05-18T05:17:32.141Z,2264.00
2019-05-18T05:18:32.067Z,2352.00
2019-05-18T05:19:31.992Z,2464.00
2019-05-18T05:20:31.921Z,2588.00
2019-05-18T05:21:31.842Z,2696.00
2019-05-18T05:22:31.766Z,2776.00
2019-05-18T05:23:31.690Z,2820.00
2019-05-18T05:24:31.616Z,2848.00
2019-05-18T05:25:31.541Z,2864.00
2019-05-18T05:26:31.468Z,2900.00
2019-05-18T05:27:31.795Z,2952.00
2019-05-18T05:28:31.316Z,3016.00
2019-05-18T05:29:32.454Z,3068.00
2019-05-18T05:30:31.165Z,3124.00
2019-05-18T05:31:31.095Z,3184.00
2019-05-18T05:32:31.021Z,3256.00
2019-05-18T05:33:30.941Z,3312.00
2019-05-18T05:34:30.867Z,3372.00
2019-05-18T05:35:30.793Z,3416.00
2019-05-18T05:36:30.745Z,3440.00
2019-05-18T05:37:30.643Z,3452.00
2019-05-18T05:38:30.569Z,3448.00
2019-05-18T05:39:30.495Z,3456.00
2019-05-18T05:40:30.419Z,3464.00
2019-05-18T05:41:30.344Z,3456.00
2019-05-18T05:42:30.269Z,3440.00
2019-05-18T05:43:30.195Z,3432.00
2019-05-18T05:44:30.121Z,3408.00
2019-05-18T05:45:30.046Z,3376.00
2019-05-18T05:46:29.971Z,3332.00
2019-05-18T05:47:29.898Z,3292.00
2019-05-18T05:48:29.824Z,3256.00
2019-05-18T05:49:29.749Z,3224.00
2019-05-18T05:50:36.095Z,3192.00
2019-05-18T05:51:29.600Z,3144.00
2019-05-18T05:52:29.526Z,3096.00
2019-05-18T05:53:29.449Z,3044.00
2019-05-18T05:54:29.377Z,2984.00
2019-05-18T05:55:29.301Z,2928.00
2019-05-18T05:56:29.236Z,2900.00
2019-05-18T05:57:29.152Z,2916.00
2019-05-18T05:58:29.080Z,2952.00
2019-05-18T05:59:29.003Z,3004.00
2019-05-18T06:00:28.929Z,3056.00
2019-05-18T06:01:28.871Z,3132.00
2019-05-18T06:02:28.783Z,3244.00
2019-05-18T06:03:28.765Z,3356.00
2019-05-18T06:04:28.636Z,3448.00
2019-05-18T06:05:28.558Z,3500.00
2019-05-18T06:06:28.484Z,3544.00
2019-05-18T06:07:28.407Z,3580.00
2019-05-18T06:08:28.334Z,3628.00
2019-05-18T06:09:28.259Z,3688.00
2019-05-18T06:10:28.186Z,3768.00
2019-05-18T06:11:28.109Z,3860.00
2019-05-18T06:12:28.037Z,3956.00
2019-05-18T06:13:27.960Z,4044.00
2019-05-18T06:15:15.375Z,4152.00
2019-05-18T06:16:15.301Z,4204.00
2019-05-18T06:17:15.326Z,4272.00
2019-05-18T06:18:15.150Z,4336.00
2019-05-18T06:19:15.077Z,4396.00
2019-05-18T06:20:15.002Z,4444.00
2019-05-18T06:21:14.927Z,4476.00
2019-05-18T06:22:14.855Z,4492.00
2019-05-18T06:27:23.690Z,4448.00
2019-05-18T06:28:23.517Z,4440.00
2019-05-18T06:29:23.442Z,4452.00
2019-05-18T06:30:23.412Z,4476.00
2019-05-18T06:31:23.406Z,4516.00
2019-05-18T06:32:23.222Z,4480.00
2019-05-18T06:33:23.149Z,4440.00
2019-05-18T06:34:23.073Z,4324.00
2019-05-18T06:35:23.000Z,4240.00
2019-05-18T06:36:22.927Z,4212.00
2019-05-18T06:37:22.853Z,4152.00
2019-05-18T06:38:22.779Z,4148.00
2019-05-18T06:39:22.706Z,4220.00
2019-05-18T06:40:22.632Z,4292.00
2019-05-18T06:41:22.558Z,4348.00
2019-05-18T06:42:22.487Z,4420.00
2019-05-18T06:43:22.411Z,4436.00
2019-05-18T06:44:22.337Z,4480.00
2019-05-18T06:45:22.268Z,4512.00
2019-05-18T06:46:22.193Z,4580.00
2019-05-18T06:47:22.119Z,4700.00
2019-05-18T06:48:22.147Z,4844.00
2019-05-18T06:49:21.974Z,4996.00
2019-05-18T06:50:21.900Z,5172.00
2019-05-18T06:51:21.828Z,5160.00
2019-05-18T06:52:21.754Z,5240.00
2019-05-18T06:53:23.418Z,5368.00
2019-05-18T06:54:21.607Z,5368.00
2019-05-18T06:55:21.539Z,5396.00
2019-05-18T06:56:21.472Z,5384.00
2019-05-18T06:57:21.397Z,5184.00
2019-05-18T06:58:23.937Z,4908.00
2019-05-18T06:59:21.448Z,4640.00
2019-05-18T07:00:21.172Z,4404.00
2019-05-18T07:01:21.112Z,4208.00
2019-05-18T07:02:21.025Z,4060.00
2019-05-18T07:03:20.952Z,3932.00
2019-05-18T07:04:20.885Z,3820.00
2019-05-18T07:05:20.806Z,3728.00
2019-05-18T07:06:20.771Z,3640.00
2019-05-18T07:08:20.588Z,3524.00
2019-05-18T07:09:20.514Z,3460.00
2019-05-18T07:10:20.441Z,3384.00
2019-05-18T07:11:20.378Z,3332.00
2019-05-18T07:12:20.295Z,3312.00
2019-05-18T07:13:20.236Z,3344.00
2019-05-18T07:14:25.746Z,3404.00
2019-05-18T07:15:20.077Z,3492.00
2019-05-18T07:16:20.004Z,3580.00
2019-05-18T07:17:19.930Z,3656.00
2019-05-18T07:18:19.857Z,3708.00
2019-05-18T07:19:19.783Z,3752.00
2019-05-18T07:20:19.810Z,3824.00
2019-05-18T07:21:22.453Z,3928.00
2019-05-18T07:22:19.564Z,4004.00
2019-05-18T07:23:19.491Z,4096.00
2019-05-18T07:24:19.417Z,4176.00
2019-05-18T07:25:19.345Z,4264.00
2019-05-18T07:26:19.271Z,4324.00
2019-05-18T07:27:19.197Z,4420.00
2019-05-18T07:28:19.126Z,4548.00
2019-05-18T07:29:19.054Z,4748.00
2019-05-18T07:30:18.980Z,5012.00
2019-05-18T07:31:18.907Z,5288.00
2019-05-18T07:32:18.833Z,5532.00
2019-05-18T07:33:18.760Z,5720.00
2019-05-18T07:34:18.689Z,5900.00
2019-05-18T07:35:18.613Z,6068.00
2019-05-18T07:36:18.541Z,6232.00
2019-05-18T07:37:18.468Z,6428.00
2019-05-18T07:39:00.882Z,6680.00
2019-05-18T07:40:00.809Z,6768.00
2019-05-18T07:41:00.744Z,6796.00
2019-05-18T07:42:00.662Z,6772.00
2019-05-18T07:43:00.590Z,6732.00
2019-05-18T07:44:00.520Z,6704.00
2019-05-18T07:45:00.446Z,6732.00
2019-05-18T07:46:00.371Z,6776.00
2019-05-18T07:47:00.299Z,6856.00
2019-05-18T07:48:00.279Z,6956.00
2019-05-18T07:49:00.154Z,7036.00
2019-05-18T07:50:00.082Z,7072.00
2019-05-18T07:51:00.010Z,7256.00
2019-05-18T07:51:59.937Z,7412.00
2019-05-18T07:52:59.865Z,7512.00
2019-05-18T07:53:59.792Z,7548.00
2019-05-18T07:54:59.720Z,7596.00
2019-05-18T07:56:42.139Z,7652.00
2019-05-18T07:57:42.063Z,7632.00
2019-05-18T07:58:41.992Z,7568.00
2019-05-18T07:59:41.920Z,7528.00
2019-05-18T08:00:41.847Z,7508.00
2019-05-18T08:01:41.775Z,7476.00
2019-05-18T08:02:41.705Z,7440.00
2019-05-18T08:03:41.634Z,7420.00
2019-05-18T08:04:41.560Z,7424.00
2019-05-18T08:05:41.488Z,7504.00
2019-05-18T08:06:41.426Z,7624.00
2019-05-18T08:07:41.345Z,7944.00
2019-05-18T08:08:41.273Z,8116.00
2019-05-18T08:09:41.204Z,8236.00
2019-05-18T08:10:43.622Z,8756.00
2019-05-18T08:11:41.058Z,9200.00
2019-05-18T08:12:40.986Z,9340.00
2019-05-18T08:13:40.915Z,9492.00
2019-05-18T08:14:40.845Z,9676.00
2019-05-18T08:15:40.772Z,9704.00
2019-05-18T08:16:40.700Z,9820.00
2019-05-18T08:17:40.630Z,9516.00
2019-05-18T08:18:40.560Z,9436.00
2019-05-18T08:19:40.488Z,9396.00
2019-05-18T08:20:40.423Z,9384.00
2019-05-18T08:21:52.324Z,9304.00
2019-05-18T08:22:40.276Z,8940.00
2019-05-18T08:23:40.248Z,8900.00
2019-05-18T08:24:40.133Z,8692.00
2019-05-18T08:25:40.064Z,8704.00
2019-05-18T08:26:39.994Z,8464.00
2019-05-18T08:27:39.926Z,7896.00
2019-05-18T08:28:39.851Z,7380.00
2019-05-18T08:29:39.780Z,7412.00
2019-05-18T08:30:39.710Z,7112.00
2019-05-18T08:31:39.666Z,6896.00
2019-05-18T08:32:39.572Z,6744.00
2019-05-18T08:33:39.529Z,6192.00
2019-05-18T08:34:39.427Z,6080.00
2019-05-18T08:35:39.355Z,6100.00
2019-05-18T08:36:39.288Z,6044.00
2019-05-18T08:37:39.218Z,6160.00
2019-05-18T08:38:39.148Z,6192.00
2019-05-18T08:39:39.073Z,6096.00
2019-05-18T08:40:39.003Z,6064.00
2019-05-18T08:41:38.932Z,6120.00
2019-05-18T08:42:38.862Z,6220.00
2019-05-18T08:43:38.790Z,6284.00
2019-05-18T08:44:38.720Z,6316.00
2019-05-18T08:45:38.678Z,6444.00
2019-05-18T08:46:38.579Z,6680.00
2019-05-18T08:47:38.507Z,6968.00
2019-05-18T08:48:38.438Z,7392.00
2019-05-18T08:49:38.366Z,7724.00
2019-05-18T08:50:38.298Z,8012.00
2019-05-18T08:51:38.223Z,8172.00
2019-05-18T08:52:38.156Z,8308.00
2019-05-18T08:53:38.082Z,8524.00
2019-05-18T08:54:38.012Z,8720.00
2019-05-18T08:55:37.941Z,8860.00
2019-05-18T08:56:37.871Z,9080.00
2019-05-18T08:57:37.806Z,9348.00
2019-05-18T08:58:37.729Z,9808.00
2019-05-18T08:59:39.932Z,9700.00
2019-05-18T09:00:37.588Z,9580.00
2019-05-18T09:01:37.520Z,9492.00
2019-05-18T09:02:37.450Z,9584.00
2019-05-18T09:03:37.376Z,10012.00
2019-05-18T09:04:40.330Z,10120.00
2019-05-18T09:05:37.235Z,10164.00
2019-05-18T09:06:37.172Z,10320.00
2019-05-18T09:07:37.104Z,10488.00
2019-05-18T09:08:37.031Z,10636.00
2019-05-18T09:09:36.956Z,10580.00
2019-05-18T09:10:36.884Z,10380.00
2019-05-18T09:11:36.813Z,10308.00
2019-05-18T09:12:36.743Z,10308.00
2019-05-18T09:13:36.673Z,10560.00
2019-05-18T09:14:36.603Z,11004.00
2019-05-18T09:15:36.531Z,11400.00
2019-05-18T09:16:36.462Z,11632.00
2019-05-18T09:17:36.401Z,11832.00
2019-05-18T09:18:36.322Z,12032.00
2019-05-18T09:19:36.351Z,12152.00
2019-05-18T09:20:36.195Z,12240.00
2019-05-18T09:21:36.112Z,12360.00
2019-05-18T09:22:36.040Z,12116.00
2019-05-18T09:23:36.000Z,11512.00
2019-05-18T09:24:35.907Z,11052.00
2019-05-18T09:25:35.832Z,10568.00
2019-05-18T09:26:35.762Z,9808.00
2019-05-18T09:27:35.692Z,9092.00
2019-05-18T09:28:35.621Z,8572.00
2019-05-18T09:29:35.553Z,7792.00
2019-05-18T09:30:35.484Z,7240.00
2019-05-18T09:31:35.415Z,6820.00
2019-05-18T09:32:35.343Z,6576.00
2019-05-18T09:33:35.276Z,6424.00
2019-05-18T09:34:35.206Z,6360.00
2019-05-18T09:35:35.135Z,6204.00
2019-05-18T09:36:35.063Z,6084.00
2019-05-18T09:37:34.993Z,6100.00
2019-05-18T09:38:34.927Z,6160.00
2019-05-18T09:39:34.853Z,6192.00
2019-05-18T09:40:34.784Z,6300.00
2019-05-18T09:41:34.714Z,6392.00
2019-05-18T09:42:34.643Z,6460.00
2019-05-18T09:43:34.573Z,6408.00
2019-05-18T09:44:34.506Z,6328.00
2019-05-18T09:45:34.435Z,6180.00
2019-05-18T09:46:34.364Z,6108.00
2019-05-18T09:47:34.295Z,6056.00
2019-05-18T09:48:34.277Z,6068.00
2019-05-18T09:49:34.152Z,6128.00
2019-05-18T09:50:34.083Z,6064.00
2019-05-18T09:51:34.011Z,6052.00
2019-05-18T09:52:44.970Z,6056.00
2019-05-18T09:53:33.870Z,5920.00
2019-05-18T09:54:33.800Z,5880.00
2019-05-18T09:56:41.236Z,6000.00
2019-05-18T09:57:41.168Z,6052.00
2019-05-18T09:58:41.096Z,5980.00
2019-05-18T09:59:41.023Z,6016.00
2019-05-18T10:00:40.954Z,6032.00
2019-05-18T10:01:40.940Z,6044.00
2019-05-18T10:02:40.813Z,6104.00
2019-05-18T10:03:40.740Z,6104.00
2019-05-18T10:04:40.672Z,6132.00
2019-05-18T10:05:40.602Z,6208.00
2019-05-18T10:06:40.529Z,6356.00
2019-05-18T10:07:40.459Z,6480.00
2019-05-18T10:08:40.388Z,6512.00
2019-05-18T10:09:40.318Z,6436.00
2019-05-18T10:10:40.247Z,6376.00
2019-05-18T10:11:40.179Z,6464.00
2019-05-18T10:12:40.105Z,6616.00
2019-05-18T10:13:40.035Z,6704.00
2019-05-18T10:14:39.964Z,6700.00
2019-05-18T10:15:39.894Z,6732.00
2019-05-18T10:16:39.824Z,6704.00
2019-05-18T10:17:39.752Z,6664.00
2019-05-18T10:18:39.690Z,6652.00
2019-05-18T10:19:39.610Z,6628.00
2019-05-18T10:20:39.541Z,6592.00
2019-05-18T10:21:39.471Z,6640.00
2019-05-18T10:22:53.436Z,6584.00
2019-05-18T10:23:40.553Z,6680.00
2019-05-18T10:24:39.318Z,6784.00
2019-05-18T10:25:39.188Z,6872.00
2019-05-18T10:26:39.119Z,6924.00
2019-05-18T10:27:39.050Z,7096.00
2019-05-18T10:28:38.977Z,7028.00
2019-05-18T10:29:38.907Z,6992.00
2019-05-18T10:30:38.837Z,7044.00
2019-05-18T10:31:38.767Z,7152.00
2019-05-18T10:32:38.699Z,7196.00
2019-05-18T10:33:38.627Z,7420.00
2019-05-18T10:34:38.559Z,7496.00
2019-05-18T10:35:38.485Z,7492.00
2019-05-18T10:36:38.417Z,7748.00
2019-05-18T10:37:38.344Z,7972.00
2019-05-18T10:38:38.276Z,8100.00
2019-05-18T10:39:38.902Z,8340.00
2019-05-18T10:40:38.133Z,8520.00
2019-05-18T10:41:38.064Z,9408.00
2019-05-18T10:42:37.995Z,10948.00
2019-05-18T10:43:37.922Z,12120.00
2019-05-18T10:44:37.853Z,12104.00
2019-05-18T10:45:37.782Z,12048.00
2019-05-18T10:46:37.711Z,13344.00
2019-05-18T10:47:37.643Z,13028.00
2019-05-18T10:48:37.571Z,12276.00
2019-05-18T10:49:37.501Z,12968.00
2019-05-18T10:50:37.433Z,15364.00
2019-05-18T10:51:37.361Z,14388.00
2019-05-18T10:52:37.301Z,12980.00
2019-05-18T10:53:37.222Z,11416.00
2019-05-18T10:54:37.171Z,10460.00
2019-05-18T10:55:37.083Z,12264.00
2019-05-18T10:56:37.013Z,14500.00
2019-05-18T10:57:36.944Z,15696.00
2019-05-18T10:58:36.876Z,16032.00
2019-05-18T10:59:40.436Z,15192.00
2019-05-18T11:00:36.737Z,14632.00
2019-05-18T11:01:36.669Z,14200.00
2019-05-18T11:02:36.617Z,14948.00
2019-05-18T11:03:36.528Z,14512.00
2019-05-18T11:04:36.487Z,18496.00
2019-05-18T11:05:36.390Z,26848.00
2019-05-18T11:06:36.326Z,46144.00
2019-05-18T11:07:36.252Z,50880.00
2019-05-18T11:10:36.048Z,44096.00
2019-05-18T11:11:36.183Z,16384.00
2019-05-18T11:12:35.911Z,19392.00
2019-05-18T11:14:33.526Z,14064.00
2019-05-18T11:15:33.464Z,12896.00
2019-05-18T11:16:33.389Z,14584.00
2019-05-18T11:17:33.321Z,13792.00
2019-05-18T11:23:51.394Z,22592.00
2019-05-18T11:24:51.328Z,18240.00
2019-05-18T11:27:13.783Z,18304.00
2019-05-18T11:28:13.707Z,22528.00
2019-05-18T11:29:13.639Z,34176.00
2019-05-18T11:30:13.570Z,19392.00
2019-05-18T11:31:13.501Z,18784.00
2019-05-18T11:32:55.924Z,16016.00
2019-05-18T11:33:55.856Z,23360.00
2019-05-18T11:34:55.806Z,13344.00
2019-05-18T11:35:55.717Z,33152.00
2019-05-18T11:36:55.651Z,46592.00
2019-05-18T11:37:55.583Z,42432.00
2019-05-18T11:38:55.512Z,51328.00
2019-05-18T11:39:55.444Z,57248.00
2019-05-18T11:40:55.375Z,58272.00
2019-05-18T11:42:55.238Z,41472.00
2019-05-18T11:43:55.171Z,35264.00
2019-05-18T11:44:55.103Z,46400.00
2019-05-18T11:45:55.035Z,67488.00
2019-05-18T11:48:42.429Z,92096.00
2019-05-18T11:49:42.330Z,101472.00
2019-05-18T11:50:42.262Z,98176.00
2019-05-18T11:51:42.201Z,94432.00
2019-05-18T11:52:42.133Z,82816.00
2019-05-18T11:53:42.071Z,69056.00
2019-05-18T11:54:43.420Z,75232.00
2019-05-18T11:55:41.942Z,74304.00
2019-05-18T11:56:41.886Z,76416.00
2019-05-18T11:57:41.841Z,67104.00
2019-05-18T11:58:41.755Z,81984.00
2019-05-18T11:59:41.691Z,59840.00
2019-05-18T12:00:41.629Z,89344.00
2019-05-18T12:01:41.565Z,98304.00
2019-05-18T12:02:41.505Z,107392.00
2019-05-18T12:03:41.442Z,106112.00
2019-05-18T12:04:41.384Z,102720.00
2019-05-18T12:05:41.319Z,102944.00
2019-05-18T12:07:23.753Z,98752.00
2019-05-18T12:08:23.700Z,96128.00
2019-05-18T12:09:23.640Z,95264.00
2019-05-18T12:10:23.571Z,100864.00
2019-05-18T12:11:26.598Z,102880.00
2019-05-18T12:12:23.450Z,99232.00
2019-05-18T12:13:23.392Z,95456.00
2019-05-18T12:14:23.738Z,39392.00
2019-05-18T12:15:23.273Z,93024.00
2019-05-18T12:16:23.212Z,92960.00
2019-05-18T12:17:23.160Z,90112.00
2019-05-18T12:19:25.870Z,14920.00
2019-05-18T12:20:25.808Z,13336.00
2019-05-18T12:21:25.754Z,14996.00
2019-05-18T12:22:25.687Z,87296.00
2019-05-18T12:23:25.625Z,20224.00
2019-05-18T12:24:25.564Z,15776.00
2019-05-18T12:25:25.503Z,71936.00
2019-05-18T12:26:25.449Z,10680.00
2019-05-18T12:27:25.380Z,10100.00
2019-05-18T12:28:25.317Z,10776.00
2019-05-18T12:29:25.325Z,13972.00
2019-05-18T12:30:25.226Z,98752.00
2019-05-18T12:31:25.123Z,96832.00
2019-05-18T12:32:25.059Z,93472.00
2019-05-18T12:33:24.994Z,28832.00
2019-05-18T12:34:24.930Z,8144.00
2019-05-18T12:35:24.865Z,7584.00
2019-05-18T12:36:24.805Z,7376.00
2019-05-18T12:37:24.738Z,7776.00
2019-05-18T12:39:27.226Z,7460.00
2019-05-18T12:40:24.542Z,7556.00
2019-05-18T12:42:16.976Z,7140.00
2019-05-18T12:43:16.910Z,6784.00
2019-05-18T12:44:16.844Z,6248.00
2019-05-18T12:45:16.782Z,5940.00
2019-05-18T12:46:16.714Z,5776.00
2019-05-18T12:47:16.645Z,6652.00
2019-05-18T12:48:16.584Z,8572.00
2019-05-18T12:49:16.532Z,16256.00
2019-05-18T12:50:16.445Z,45728.00
2019-05-18T12:51:16.378Z,9668.00
2019-05-18T12:52:16.313Z,7792.00
2019-05-18T12:53:17.746Z,6952.00
2019-05-18T12:54:28.668Z,6308.00
2019-05-18T12:55:16.110Z,5832.00
2019-05-18T12:56:16.052Z,5712.00
2019-05-18T12:57:15.977Z,5764.00
2019-05-18T12:58:15.907Z,5784.00
2019-05-18T12:59:15.841Z,5868.00
2019-05-18T13:00:15.794Z,5972.00
2019-05-18T13:01:15.707Z,6040.00
2019-05-18T13:02:15.638Z,5868.00
2019-05-18T13:03:15.570Z,5676.00
2019-05-18T13:04:15.503Z,5388.00
2019-05-18T13:05:15.434Z,4928.00
2019-05-18T13:06:15.368Z,4592.00
2019-05-18T13:07:15.302Z,4476.00
2019-05-18T13:08:15.230Z,4288.00
2019-05-18T13:11:50.835Z,2680.00
2019-05-18T13:12:50.766Z,2388.00
2019-05-18T13:13:50.695Z,2200.00
2019-05-18T13:14:50.626Z,2140.00
2019-05-18T13:15:50.555Z,2248.00
2019-05-18T13:16:50.486Z,2344.00
2019-05-18T13:17:50.416Z,2416.00
2019-05-18T13:18:50.348Z,2612.00
2019-05-18T13:19:50.280Z,3204.00
2019-05-18T13:20:50.239Z,3852.00
2019-05-18T13:27:49.746Z,7072.00
2019-05-18T13:28:49.652Z,7360.00
2019-05-18T13:30:42.074Z,7892.00
2019-05-18T13:31:42.005Z,8136.00
2019-05-18T13:32:41.937Z,8072.00
2019-05-18T13:33:41.865Z,8368.00
2019-05-18T13:34:41.794Z,8712.00
2019-05-18T13:35:45.253Z,8776.00
2019-05-18T13:36:41.657Z,8776.00
2019-05-18T13:37:41.586Z,8608.00
2019-05-18T13:38:41.515Z,8452.00
2019-05-18T13:39:41.447Z,8528.00
2019-05-18T13:40:41.377Z,8604.00
2019-05-18T13:41:41.320Z,8444.00
2019-05-18T13:42:41.305Z,8552.00
2019-05-18T13:43:41.168Z,9156.00
2019-05-18T13:44:41.096Z,9240.00
2019-05-18T13:45:41.068Z,9052.00
2019-05-18T13:46:40.961Z,8668.00
2019-05-18T13:47:40.889Z,8636.00
2019-05-18T13:48:40.816Z,8692.00
2019-05-18T13:49:40.748Z,8672.00
2019-05-18T13:50:40.677Z,8644.00
2019-05-18T13:51:40.608Z,8704.00
2019-05-18T13:52:40.540Z,9052.00
2019-05-18T13:53:40.466Z,9600.00
2019-05-18T13:54:40.397Z,10248.00
2019-05-18T13:56:40.260Z,11040.00
2019-05-18T13:57:40.192Z,11156.00
2019-05-18T13:58:40.122Z,11932.00
2019-05-18T13:59:40.050Z,12972.00
2019-05-18T14:00:39.979Z,13624.00
2019-05-18T14:01:39.911Z,14532.00
2019-05-18T14:02:39.840Z,15488.00
2019-05-18T14:03:39.772Z,16768.00
2019-05-18T14:04:39.701Z,19200.00
2019-05-18T14:05:39.632Z,20384.00
2019-05-18T14:06:39.562Z,20288.00
2019-05-18T14:07:39.496Z,20128.00
2019-05-18T14:08:39.509Z,19264.00
2019-05-18T14:09:39.357Z,17664.00
2019-05-18T14:10:39.333Z,16288.00
2019-05-18T14:11:39.218Z,15584.00
2019-05-18T14:12:39.151Z,15444.00
2019-05-18T14:13:39.082Z,15612.00
2019-05-18T14:14:39.014Z,16288.00
2019-05-18T14:15:38.944Z,16992.00
2019-05-18T14:16:38.876Z,17664.00
2019-05-18T14:17:38.809Z,18720.00
2019-05-18T14:18:38.744Z,20064.00
2019-05-18T14:19:38.671Z,26144.00
2019-05-18T14:20:38.602Z,20576.00
2019-05-18T14:22:21.027Z,27552.00
2019-05-18T14:23:20.958Z,30112.00
2019-05-18T14:24:20.890Z,44128.00
2019-05-18T14:25:20.819Z,43936.00
2019-05-18T14:26:20.753Z,35232.00
2019-05-18T14:27:20.687Z,31744.00
2019-05-18T14:28:20.620Z,33952.00
2019-05-18T14:29:20.551Z,42144.00
2019-05-18T14:30:20.504Z,43072.00
2019-05-18T14:31:20.450Z,43328.00
2019-05-18T14:32:20.352Z,42592.00
2019-05-18T14:33:20.285Z,43680.00
2019-05-18T14:34:20.221Z,47296.00
2019-05-18T14:35:20.153Z,48064.00
2019-05-18T14:36:20.089Z,48960.00
2019-05-18T14:37:20.021Z,48416.00
2019-05-18T14:38:19.956Z,49024.00
2019-05-18T14:39:23.117Z,37952.00
2019-05-18T14:40:19.858Z,22720.00
2019-05-18T14:41:19.762Z,18304.00
2019-05-18T14:42:19.699Z,17184.00
2019-05-18T14:43:19.634Z,17216.00
2019-05-18T14:44:19.579Z,19488.00
2019-05-18T14:45:19.510Z,38080.00
2019-05-18T14:46:19.437Z,41472.00
2019-05-18T14:47:19.374Z,33728.00
2019-05-18T14:48:19.308Z,23296.00
2019-05-18T14:49:19.242Z,21888.00
2019-05-18T14:50:19.381Z,25056.00
2019-05-18T14:51:19.114Z,28832.00
2019-05-18T14:52:19.049Z,41856.00
2019-05-18T14:53:18.995Z,43264.00
2019-05-18T14:54:18.918Z,47488.00
2019-05-18T14:55:32.394Z,42592.00
2019-05-18T14:56:18.787Z,29280.00
2019-05-18T14:57:18.722Z,19424.00
2019-05-18T14:58:18.669Z,16544.00
2019-05-18T14:59:18.593Z,16864.00
2019-05-18T15:02:44.196Z,18400.00
2019-05-18T15:03:44.130Z,17088.00
2019-05-18T15:04:44.094Z,18464.00
2019-05-18T15:05:44.025Z,21408.00
2019-05-18T15:06:43.959Z,24544.00
2019-05-18T15:07:44.072Z,23744.00
2019-05-18T15:33:09.234Z,13304.00
2019-05-18T15:34:09.603Z,14564.00
2019-05-18T15:41:19.604Z,7724.00
2019-05-18T15:42:19.555Z,7276.00
2019-05-18T15:43:19.673Z,6764.00
2019-05-18T15:46:06.856Z,4412.00
2019-05-18T15:47:06.763Z,3972.00
2019-05-18T15:48:06.694Z,3640.00
2019-05-18T15:49:06.995Z,3400.00
2019-05-18T15:52:06.425Z,2920.00
2019-05-18T15:53:06.361Z,2756.00
2019-05-18T15:59:23.193Z,1164.00
2019-05-18T16:00:21.782Z,1160.00
2019-05-18T16:01:21.713Z,1252.00
2019-05-18T16:02:21.643Z,1376.00
2019-05-18T16:03:21.574Z,1444.00
2019-05-18T16:04:21.506Z,1388.00
2019-05-18T16:06:18.940Z,1240.00
2019-05-18T16:08:06.361Z,1372.00
2019-05-18T16:09:06.292Z,1428.00
2019-05-18T16:10:06.220Z,1408.00
2019-05-18T16:11:06.156Z,1352.00
2019-05-18T16:12:06.081Z,1332.00
2019-05-18T16:14:08.559Z,1348.00
2019-05-18T16:15:08.492Z,1444.00
2019-05-18T16:16:08.417Z,1484.00
2019-05-18T16:17:05.730Z,1668.00
2019-05-18T16:18:05.654Z,1900.00
2019-05-18T16:19:05.583Z,1924.00
2019-05-18T16:20:05.517Z,1884.00
2019-05-18T16:21:05.443Z,1848.00
2019-05-18T16:22:05.373Z,1852.00
2019-05-18T16:23:05.300Z,2028.00
2019-05-18T16:24:05.230Z,2396.00
2019-05-18T16:25:05.160Z,2584.00
2019-05-18T16:26:20.386Z,2664.00
2019-05-18T16:27:05.021Z,2768.00
2019-05-18T16:28:04.948Z,2996.00
2019-05-18T16:29:04.877Z,3144.00
2019-05-18T16:30:04.811Z,3080.00
2019-05-18T16:31:04.743Z,2940.00
2019-05-18T16:32:04.711Z,2772.00
2019-05-18T16:33:04.596Z,2604.00
2019-05-18T16:34:04.527Z,2332.00
2019-05-18T16:35:04.454Z,1976.00
2019-05-18T16:36:04.445Z,1632.00
2019-05-18T16:37:04.316Z,1344.00
2019-05-18T16:38:04.243Z,1160.00
2019-05-18T16:39:04.173Z,980.00
2019-05-18T16:40:04.106Z,832.00
2019-05-18T16:41:04.033Z,744.00
2019-05-18T16:42:03.962Z,712.00
2019-05-18T16:43:03.919Z,740.00
2019-05-18T16:44:03.820Z,796.00
2019-05-18T16:45:03.766Z,844.00
2019-05-18T16:46:03.678Z,840.00
2019-05-18T16:47:03.609Z,824.00
2019-05-18T16:48:03.539Z,812.00
2019-05-18T16:49:03.469Z,792.00
2019-05-18T16:50:03.409Z,760.00
2019-05-18T16:51:03.330Z,732.00
2019-05-18T16:52:03.256Z,668.00
2019-05-18T16:53:03.310Z,572.00
2019-05-18T16:54:03.251Z,576.00
2019-05-18T16:55:03.043Z,676.00
2019-05-18T16:56:02.974Z,780.00
2019-05-18T16:57:02.904Z,868.00
2019-05-18T16:58:02.839Z,908.00
2019-05-18T16:59:02.762Z,956.00
2019-05-18T17:00:02.691Z,952.00
2019-05-18T17:01:02.620Z,920.00
2019-05-18T17:02:02.547Z,892.00
2019-05-18T17:03:02.478Z,888.00
2019-05-18T17:04:02.407Z,908.00